Rickmers New Orleans — V7FF2 — position and weather

sailwx.info

Track history (hours):
 
Tides and Currents Weather Stations Pressure Air Temp Water Temp Dewpoint Dewpoint Depression Visibility Wind Speed Wind Dir Waves Ship Positions

Rickmers New Orleans

Last reported at 2014-Sep-02 06:33 UTC. Time now 2014-Sep-02 19:15 UTC.
Position N 44°37' W 003°15'.

Length 192.9 m; beam 27.8 m; draft 11.2 m.

Type: Ship. MMSI: 538001922.

Date/timePositionNaut miles runAvg speedWind from/ knotsBaromVisibWave heightAir tempDewpointWater temp
2014-Sep-02 06:33N 44°37' W 003°15'10 9.4
2014-Sep-02 05:31N 44°35' W 003°02'8 8.7
2014-Sep-02 04:33N 44°34' W 002°50'16 6.4
2014-Sep-02 02:05N 44°31' W 002°28'4 6.7
2014-Sep-02 01:30N 44°31' W 002°23'7 7.0
2014-Sep-02 00:33N 44°30' W 002°14'7 7.0
2014-Sep-01 23:31N 44°30' W 002°03'7 6.8
2014-Sep-01 22:31N 44°30' W 001°54'6 5.8
2014-Sep-01 21:33N 44°35' W 001°51'1211.9
2014-Sep-01 20:32N 44°46' W 001°58'1212.3
2014-Sep-01 19:33N 44°57' W 002°05'1312.4
2014-Sep-01 18:33N 45°08' W 002°12'1212.2
2014-Sep-01 17:33N 45°20' W 002°20'4212.2
2014-Sep-01 14:06N 45°58' W 002°44'712.0
2014-Sep-01 13:30N 46°05' W 002°49'1312.1
2014-Sep-01 12:27N 46°16' W 002°56'1112.1
2014-Sep-01 11:33N 46°26' W 003°02'1211.9
2014-Sep-01 10:33N 46°37' W 003°10'1211.9
2014-Sep-01 09:33N 46°48' W 003°17'1212.0
2014-Sep-01 08:33N 46°59' W 003°24'1211.7
2014-Sep-01 07:33N 47°09' W 003°31'1211.6
2014-Sep-01 06:34N 47°20' W 003°38'2311.6
2014-Sep-01 04:33N 47°32' W 004°07'2811.6
2014-Sep-01 02:06N 47°47' W 004°43'611.4
2014-Sep-01 01:33N 47°50' W 004°51'2412.2
2014-Aug-31 23:33N 48°02' W 005°22'1312.5
2014-Aug-31 22:30N 48°11' W 005°38'3213.9
2014-Aug-31 20:13N 48°40' W 005°56'1015.2
2014-Aug-31 19:33N 48°48' W 005°48'1514.7
2014-Aug-31 18:33N 48°58' W 005°32'1514.9
2014-Aug-31 17:33N 49°07' W 005°13'1515.3
2014-Aug-31 16:33N 49°15' W 004°53'1616.0
2014-Aug-31 15:34N 49°23' W 004°32'3316.6
2014-Aug-31 13:33N 49°39' W 003°47'9615.0
2014-Aug-31 07:10N 50°17' W 001°30'1718.7
2014-Aug-31 06:17N 50°20' W 001°04'4018.0
2014-Aug-31 04:05N 50°30' W 000°04'916.9
2014-Aug-31 03:33N 50°33' E 000°09'1616.3
2014-Aug-31 02:33N 50°38' E 000°34'1515.4
2014-Aug-31 01:33N 50°47' E 000°54'1515.1
2014-Aug-31 00:33N 50°56' E 001°13'1615.7
2014-Aug-30 23:33N 51°06' E 001°31'1717.4
2014-Aug-30 22:33N 51°19' E 001°49'1717.4
2014-Aug-30 21:33N 51°34' E 002°05'10214.5
2014-Aug-30 14:33N 52°53' E 003°50'1615.1
2014-Aug-30 13:30N 53°03' E 004°09'2814.5
2014-Aug-30 11:34N 53°27' E 004°36'1313.2
2014-Aug-30 10:33N 53°33' E 004°55'1312.8
2014-Aug-30 09:33N 53°38' E 005°15'1212.3
2014-Aug-30 08:33N 53°41' E 005°35'1412.6
2014-Aug-30 07:29N 53°45' E 005°57'5513.5
2014-Aug-30 03:25N 54°00' E 007°27'1214.2
2014-Aug-30 02:33N 54°02' E 007°47'1414.0
2014-Aug-30 01:33N 54°01' E 008°11'1313.0
2014-Aug-30 00:33N 53°58' E 008°33'1212.3
2014-Aug-29 23:33N 53°50' E 008°49'1212.2
2014-Aug-29 22:33N 53°53' E 009°09'1313.0
2014-Aug-29 21:33N 53°44' E 009°26'1413.9
2014-Aug-29 20:33N 53°34' E 009°42'9 9.3
2014-Aug-29 19:34N 53°31' E 009°56'2 2.4
2014-Aug-29 18:33N 53°29' E 009°59'0 0.0
2014-Aug-29 17:22N 53°29' E 009°59'0 0.0
2014-Aug-29 16:32N 53°29' E 009°59'0 0.0
2014-Aug-29 15:19N 53°29' E 009°59'0 0.0
2014-Aug-29 14:32N 53°29' E 009°59'0 0.0
2014-Aug-29 13:32N 53°29' E 009°59'0 0.0
2014-Aug-29 12:32N 53°29' E 009°59'0 0.0
2014-Aug-29 11:28N 53°29' E 009°59'0 0.0
2014-Aug-29 10:28N 53°29' E 009°59'0 0.0
2014-Aug-29 09:31N 53°29' E 009°59'0 0.0
2014-Aug-29 08:25N 53°29' E 009°59'0 0.0
2014-Aug-29 07:25N 53°29' E 009°59'0 0.0
2014-Aug-29 06:28N 53°29' E 009°59'0 0.0
2014-Aug-29 05:22N 53°29' E 009°59'0 0.0
2014-Aug-29 04:28N 53°29' E 009°59'0 0.0
2014-Aug-29 03:28N 53°29' E 009°59'0 0.0
2014-Aug-29 02:32N 53°29' E 009°59'0 0.0
2014-Aug-29 01:25N 53°29' E 009°59'0 0.0
2014-Aug-29 00:32N 53°29' E 009°59'0 0.0
2014-Aug-28 23:28N 53°29' E 009°59'0 0.0
2014-Aug-28 22:31N 53°29' E 009°59'0 0.0
2014-Aug-28 21:32N 53°29' E 009°59'0 0.0
2014-Aug-28 20:13N 53°29' E 009°59'0 0.0
2014-Aug-28 19:32N 53°29' E 009°59'0 0.0
2014-Aug-28 18:32N 53°29' E 009°59'0 0.0
2014-Aug-28 17:28N 53°29' E 009°59'0 0.0
2014-Aug-28 16:25N 53°29' E 009°59'0 0.0
2014-Aug-28 15:28N 53°29' E 009°59'0 0.0
2014-Aug-28 14:25N 53°29' E 009°59'0 0.0
2014-Aug-28 13:32N 53°29' E 009°59'0 0.0
2014-Aug-28 12:25N 53°29' E 009°59'0 0.0
2014-Aug-28 11:32N 53°29' E 009°59'0 0.0
2014-Aug-28 10:25N 53°29' E 009°59'0 0.0
2014-Aug-28 09:28N 53°29' E 009°59'0 0.0
2014-Aug-28 08:25N 53°29' E 009°59'0 0.0
2014-Aug-28 07:32N 53°29' E 009°59'0 0.0
2014-Aug-28 06:19N 53°29' E 009°59'0 0.0
2014-Aug-28 05:32N 53°29' E 009°59'0 0.0
2014-Aug-28 04:31N 53°29' E 009°59'0 0.0
2014-Aug-28 03:25N 53°29' E 009°59'0 0.0
2014-Aug-28 02:25N 53°29' E 009°59'0 0.0
2014-Aug-28 01:32N 53°29' E 009°59'0 0.0
2014-Aug-28 00:32N 53°29' E 009°59'0 0.0
2014-Aug-27 23:25N 53°29' E 009°59'0 0.0
2014-Aug-27 22:28N 53°29' E 009°59'0 0.0
2014-Aug-27 21:25N 53°29' E 009°59'0 0.0
2014-Aug-27 20:28N 53°29' E 009°59'0 0.0
2014-Aug-27 19:32N 53°29' E 009°59'0 0.0
2014-Aug-27 18:25N 53°29' E 009°59'0 0.0
2014-Aug-27 17:32N 53°29' E 009°59'0 0.0
2014-Aug-27 16:25N 53°29' E 009°59'0 0.0
2014-Aug-27 15:33N 53°29' E 009°59'1 1.1
2014-Aug-27 14:33N 53°30' E 009°58'5 4.6
2014-Aug-27 13:33N 53°33' E 009°51'1010.1
2014-Aug-27 12:33N 53°36' E 009°36'1212.1
2014-Aug-27 11:33N 53°46' E 009°24'1211.9
2014-Aug-27 10:33N 53°53' E 009°08'1212.1
2014-Aug-27 09:34N 53°50' E 008°48'1212.1
2014-Aug-27 08:33N 53°58' E 008°31'1313.4
2014-Aug-27 07:33N 53°60' E 008°09'8 7.8
2014-Aug-27 06:33N 53°58' E 007°56'3 2.6
2014-Aug-27 05:33N 53°58' E 007°51'1 0.6
2014-Aug-27 04:28N 53°58' E 007°52'5911.1
2014-Aug-26 23:07N 53°43' E 006°15'712.7
2014-Aug-26 22:33N 53°41' E 006°04'1212.4
2014-Aug-26 21:33N 53°37' E 005°44'1212.4
2014-Aug-26 20:33N 53°33' E 005°24'1312.6
2014-Aug-26 19:34N 53°29' E 005°04'1212.4
2014-Aug-26 18:33N 53°24' E 004°45'1313.0
2014-Aug-26 17:32N 53°13' E 004°33'1313.4
2014-Aug-26 16:33N 53°02' E 004°22'1313.5
2014-Aug-26 15:33N 52°49' E 004°13'3015.0
2014-Aug-26 13:33N 52°28' E 003°39'4314.2
2014-Aug-26 10:33N 51°47' E 003°16'1211.7
2014-Aug-26 09:30N 51°36' E 003°10'1213.1
2014-Aug-26 08:34N 51°25' E 003°00'1616.3
2014-Aug-26 07:34N 51°25' E 003°26'1110.8
2014-Aug-26 06:34N 51°23' E 003°43'1211.9
2014-Aug-26 05:34N 51°23' E 004°02'10 9.6
2014-Aug-26 04:33N 51°21' E 004°17'0 0.0
2014-Aug-26 03:33N 51°21' E 004°17'2 2.3
2014-Aug-26 02:33N 51°19' E 004°19'3 2.7
2014-Aug-26 01:32N 51°17' E 004°23'0 0.0
2014-Aug-26 00:29N 51°17' E 004°23'0 0.0
2014-Aug-25 23:32N 51°17' E 004°23'0 0.0
2014-Aug-25 22:32N 51°17' E 004°23'0 0.0
2014-Aug-25 21:32N 51°17' E 004°23'0 0.0
2014-Aug-25 20:32N 51°17' E 004°23'0 0.0
2014-Aug-25 19:32N 51°17' E 004°23'0 0.0
2014-Aug-25 18:32N 51°17' E 004°23'0 0.0
2014-Aug-25 17:32N 51°17' E 004°23'0 0.0
2014-Aug-25 16:32N 51°17' E 004°23'0 0.0
2014-Aug-25 15:29N 51°17' E 004°23'0 0.0
2014-Aug-25 14:26N 51°17' E 004°23'0 0.0
2014-Aug-25 13:32N 51°17' E 004°23'0 0.0
2014-Aug-25 12:32N 51°17' E 004°23'0 0.0
2014-Aug-25 11:29N 51°17' E 004°23'0 0.0
2014-Aug-25 10:32N 51°17' E 004°23'0 0.0
2014-Aug-25 09:32N 51°17' E 004°23'0 0.0
2014-Aug-25 08:32N 51°17' E 004°23'0 0.0
2014-Aug-25 07:32N 51°17' E 004°23'0 0.0
2014-Aug-25 06:32N 51°17' E 004°23'0 0.0
2014-Aug-25 05:32N 51°17' E 004°23'0 0.0
2014-Aug-25 04:32N 51°17' E 004°23'0 0.0
2014-Aug-25 03:32N 51°17' E 004°23'0 0.0
2014-Aug-25 02:32N 51°17' E 004°23'0 0.0
2014-Aug-25 01:32N 51°17' E 004°23'0 0.0
2014-Aug-25 00:29N 51°17' E 004°23'0 0.0
2014-Aug-24 23:32N 51°17' E 004°23'0 0.0
2014-Aug-24 22:32N 51°17' E 004°23'0 0.0
2014-Aug-24 21:29N 51°17' E 004°23'0 0.0
2014-Aug-24 20:32N 51°17' E 004°23'0 0.0
2014-Aug-24 19:32N 51°17' E 004°23'0 0.0
2014-Aug-24 18:32N 51°17' E 004°23'0 0.0
2014-Aug-24 17:32N 51°17' E 004°23'0 0.0
2014-Aug-24 16:32N 51°17' E 004°23'0 0.0
2014-Aug-24 15:32N 51°17' E 004°23'0 0.0
2014-Aug-24 14:32N 51°17' E 004°23'0 0.0
2014-Aug-24 13:32N 51°17' E 004°23'0 0.0
2014-Aug-24 12:32N 51°17' E 004°23'0 0.0
2014-Aug-24 11:32N 51°17' E 004°23'0 0.0
2014-Aug-24 10:32N 51°17' E 004°23'0 0.0
2014-Aug-24 09:32N 51°17' E 004°23'0 0.0
2014-Aug-24 08:32N 51°17' E 004°23'0 0.0
2014-Aug-24 07:32N 51°17' E 004°23'0 0.0
2014-Aug-24 06:32N 51°17' E 004°23'0 0.0
2014-Aug-24 05:32N 51°17' E 004°23'0 0.0
2014-Aug-24 04:32N 51°17' E 004°23'0 0.0
2014-Aug-24 03:32N 51°17' E 004°23'0 0.0
2014-Aug-24 02:29N 51°17' E 004°23'0 0.0
2014-Aug-24 01:32N 51°17' E 004°23'0 0.0
2014-Aug-24 00:32N 51°17' E 004°23'0 0.0
2014-Aug-23 23:32N 51°17' E 004°23'0 0.0
2014-Aug-23 22:32N 51°17' E 004°23'0 0.0
2014-Aug-23 21:32N 51°17' E 004°23'0 0.0
2014-Aug-23 20:32N 51°17' E 004°23'0 0.0
2014-Aug-23 19:32N 51°17' E 004°23'  
Track history (hours):
 
Tides and Currents Weather Stations Pressure Air Temp Water Temp Dewpoint Dewpoint Depression Visibility Wind Speed Wind Dir Waves Ship Positions

Rickmers New Orleans

Last reported at 2014-Sep-02 06:33 UTC. Time now 2014-Sep-02 19:15 UTC.
Position N 44°37' W 003°15'.

Length 192.9 m; beam 27.8 m; draft 11.2 m.

Type: Ship. MMSI: 538001922.

Date/timePositionNaut miles runAvg speedWind from/ knotsBaromVisibWave heightAir tempDewpointWater temp
2014-Sep-02 06:33N 44°37' W 003°15'10 9.4
2014-Sep-02 05:31N 44°35' W 003°02'8 8.7
2014-Sep-02 04:33N 44°34' W 002°50'16 6.4
2014-Sep-02 02:05N 44°31' W 002°28'4 6.7
2014-Sep-02 01:30N 44°31' W 002°23'7 7.0
2014-Sep-02 00:33N 44°30' W 002°14'7 7.0
2014-Sep-01 23:31N 44°30' W 002°03'7 6.8
2014-Sep-01 22:31N 44°30' W 001°54'6 5.8
2014-Sep-01 21:33N 44°35' W 001°51'1211.9
2014-Sep-01 20:32N 44°46' W 001°58'1212.3
2014-Sep-01 19:33N 44°57' W 002°05'1312.4
2014-Sep-01 18:33N 45°08' W 002°12'1212.2
2014-Sep-01 17:33N 45°20' W 002°20'4212.2
2014-Sep-01 14:06N 45°58' W 002°44'712.0
2014-Sep-01 13:30N 46°05' W 002°49'1312.1
2014-Sep-01 12:27N 46°16' W 002°56'1112.1
2014-Sep-01 11:33N 46°26' W 003°02'1211.9
2014-Sep-01 10:33N 46°37' W 003°10'1211.9
2014-Sep-01 09:33N 46°48' W 003°17'1212.0
2014-Sep-01 08:33N 46°59' W 003°24'1211.7
2014-Sep-01 07:33N 47°09' W 003°31'1211.6
2014-Sep-01 06:34N 47°20' W 003°38'2311.6
2014-Sep-01 04:33N 47°32' W 004°07'2811.6
2014-Sep-01 02:06N 47°47' W 004°43'611.4
2014-Sep-01 01:33N 47°50' W 004°51'2412.2
2014-Aug-31 23:33N 48°02' W 005°22'1312.5
2014-Aug-31 22:30N 48°11' W 005°38'3213.9
2014-Aug-31 20:13N 48°40' W 005°56'1015.2
2014-Aug-31 19:33N 48°48' W 005°48'1514.7
2014-Aug-31 18:33N 48°58' W 005°32'1514.9
2014-Aug-31 17:33N 49°07' W 005°13'1515.3
2014-Aug-31 16:33N 49°15' W 004°53'1616.0
2014-Aug-31 15:34N 49°23' W 004°32'3316.6
2014-Aug-31 13:33N 49°39' W 003°47'9615.0
2014-Aug-31 07:10N 50°17' W 001°30'1718.7
2014-Aug-31 06:17N 50°20' W 001°04'4018.0
2014-Aug-31 04:05N 50°30' W 000°04'916.9
2014-Aug-31 03:33N 50°33' E 000°09'1616.3
2014-Aug-31 02:33N 50°38' E 000°34'1515.4
2014-Aug-31 01:33N 50°47' E 000°54'1515.1
2014-Aug-31 00:33N 50°56' E 001°13'1615.7
2014-Aug-30 23:33N 51°06' E 001°31'1717.4
2014-Aug-30 22:33N 51°19' E 001°49'1717.4
2014-Aug-30 21:33N 51°34' E 002°05'10214.5
2014-Aug-30 14:33N 52°53' E 003°50'1615.1
2014-Aug-30 13:30N 53°03' E 004°09'2814.5
2014-Aug-30 11:34N 53°27' E 004°36'1313.2
2014-Aug-30 10:33N 53°33' E 004°55'1312.8
2014-Aug-30 09:33N 53°38' E 005°15'1212.3
2014-Aug-30 08:33N 53°41' E 005°35'1412.6
2014-Aug-30 07:29N 53°45' E 005°57'5513.5
2014-Aug-30 03:25N 54°00' E 007°27'1214.2
2014-Aug-30 02:33N 54°02' E 007°47'1414.0
2014-Aug-30 01:33N 54°01' E 008°11'1313.0
2014-Aug-30 00:33N 53°58' E 008°33'1212.3
2014-Aug-29 23:33N 53°50' E 008°49'1212.2
2014-Aug-29 22:33N 53°53' E 009°09'1313.0
2014-Aug-29 21:33N 53°44' E 009°26'1413.9
2014-Aug-29 20:33N 53°34' E 009°42'9 9.3
2014-Aug-29 19:34N 53°31' E 009°56'2 2.4
2014-Aug-29 18:33N 53°29' E 009°59'0 0.0
2014-Aug-29 17:22N 53°29' E 009°59'0 0.0
2014-Aug-29 16:32N 53°29' E 009°59'0 0.0
2014-Aug-29 15:19N 53°29' E 009°59'0 0.0
2014-Aug-29 14:32N 53°29' E 009°59'0 0.0
2014-Aug-29 13:32N 53°29' E 009°59'0 0.0
2014-Aug-29 12:32N 53°29' E 009°59'0 0.0
2014-Aug-29 11:28N 53°29' E 009°59'0 0.0
2014-Aug-29 10:28N 53°29' E 009°59'0 0.0
2014-Aug-29 09:31N 53°29' E 009°59'0 0.0
2014-Aug-29 08:25N 53°29' E 009°59'0 0.0
2014-Aug-29 07:25N 53°29' E 009°59'0 0.0
2014-Aug-29 06:28N 53°29' E 009°59'0 0.0
2014-Aug-29 05:22N 53°29' E 009°59'0 0.0
2014-Aug-29 04:28N 53°29' E 009°59'0 0.0
2014-Aug-29 03:28N 53°29' E 009°59'0 0.0
2014-Aug-29 02:32N 53°29' E 009°59'0 0.0
2014-Aug-29 01:25N 53°29' E 009°59'0 0.0
2014-Aug-29 00:32N 53°29' E 009°59'0 0.0
2014-Aug-28 23:28N 53°29' E 009°59'0 0.0
2014-Aug-28 22:31N 53°29' E 009°59'0 0.0
2014-Aug-28 21:32N 53°29' E 009°59'0 0.0
2014-Aug-28 20:13N 53°29' E 009°59'0 0.0
2014-Aug-28 19:32N 53°29' E 009°59'0 0.0
2014-Aug-28 18:32N 53°29' E 009°59'0 0.0
2014-Aug-28 17:28N 53°29' E 009°59'0 0.0
2014-Aug-28 16:25N 53°29' E 009°59'0 0.0
2014-Aug-28 15:28N 53°29' E 009°59'0 0.0
2014-Aug-28 14:25N 53°29' E 009°59'0 0.0
2014-Aug-28 13:32N 53°29' E 009°59'0 0.0
2014-Aug-28 12:25N 53°29' E 009°59'0 0.0
2014-Aug-28 11:32N 53°29' E 009°59'0 0.0
2014-Aug-28 10:25N 53°29' E 009°59'0 0.0
2014-Aug-28 09:28N 53°29' E 009°59'0 0.0
2014-Aug-28 08:25N 53°29' E 009°59'0 0.0
2014-Aug-28 07:32N 53°29' E 009°59'0 0.0
2014-Aug-28 06:19N 53°29' E 009°59'0 0.0
2014-Aug-28 05:32N 53°29' E 009°59'0 0.0
2014-Aug-28 04:31N 53°29' E 009°59'0 0.0
2014-Aug-28 03:25N 53°29' E 009°59'0 0.0
2014-Aug-28 02:25N 53°29' E 009°59'0 0.0
2014-Aug-28 01:32N 53°29' E 009°59'0 0.0
2014-Aug-28 00:32N 53°29' E 009°59'0 0.0
2014-Aug-27 23:25N 53°29' E 009°59'0 0.0
2014-Aug-27 22:28N 53°29' E 009°59'0 0.0
2014-Aug-27 21:25N 53°29' E 009°59'0 0.0
2014-Aug-27 20:28N 53°29' E 009°59'0 0.0
2014-Aug-27 19:32N 53°29' E 009°59'0 0.0
2014-Aug-27 18:25N 53°29' E 009°59'0 0.0
2014-Aug-27 17:32N 53°29' E 009°59'0 0.0
2014-Aug-27 16:25N 53°29' E 009°59'0 0.0
2014-Aug-27 15:33N 53°29' E 009°59'1 1.1
2014-Aug-27 14:33N 53°30' E 009°58'5 4.6
2014-Aug-27 13:33N 53°33' E 009°51'1010.1
2014-Aug-27 12:33N 53°36' E 009°36'1212.1
2014-Aug-27 11:33N 53°46' E 009°24'1211.9
2014-Aug-27 10:33N 53°53' E 009°08'1212.1
2014-Aug-27 09:34N 53°50' E 008°48'1212.1
2014-Aug-27 08:33N 53°58' E 008°31'1313.4
2014-Aug-27 07:33N 53°60' E 008°09'8 7.8
2014-Aug-27 06:33N 53°58' E 007°56'3 2.6
2014-Aug-27 05:33N 53°58' E 007°51'1 0.6
2014-Aug-27 04:28N 53°58' E 007°52'5911.1
2014-Aug-26 23:07N 53°43' E 006°15'712.7
2014-Aug-26 22:33N 53°41' E 006°04'1212.4
2014-Aug-26 21:33N 53°37' E 005°44'1212.4
2014-Aug-26 20:33N 53°33' E 005°24'1312.6
2014-Aug-26 19:34N 53°29' E 005°04'1212.4
2014-Aug-26 18:33N 53°24' E 004°45'1313.0
2014-Aug-26 17:32N 53°13' E 004°33'1313.4
2014-Aug-26 16:33N 53°02' E 004°22'1313.5
2014-Aug-26 15:33N 52°49' E 004°13'3015.0
2014-Aug-26 13:33N 52°28' E 003°39'4314.2
2014-Aug-26 10:33N 51°47' E 003°16'1211.7
2014-Aug-26 09:30N 51°36' E 003°10'1213.1
2014-Aug-26 08:34N 51°25' E 003°00'1616.3
2014-Aug-26 07:34N 51°25' E 003°26'1110.8
2014-Aug-26 06:34N 51°23' E 003°43'1211.9
2014-Aug-26 05:34N 51°23' E 004°02'10 9.6
2014-Aug-26 04:33N 51°21' E 004°17'0 0.0
2014-Aug-26 03:33N 51°21' E 004°17'2 2.3
2014-Aug-26 02:33N 51°19' E 004°19'3 2.7
2014-Aug-26 01:32N 51°17' E 004°23'0 0.0
2014-Aug-26 00:29N 51°17' E 004°23'0 0.0
2014-Aug-25 23:32N 51°17' E 004°23'0 0.0
2014-Aug-25 22:32N 51°17' E 004°23'0 0.0
2014-Aug-25 21:32N 51°17' E 004°23'0 0.0
2014-Aug-25 20:32N 51°17' E 004°23'0 0.0
2014-Aug-25 19:32N 51°17' E 004°23'0 0.0
2014-Aug-25 18:32N 51°17' E 004°23'0 0.0
2014-Aug-25 17:32N 51°17' E 004°23'0 0.0
2014-Aug-25 16:32N 51°17' E 004°23'0 0.0
2014-Aug-25 15:29N 51°17' E 004°23'0 0.0
2014-Aug-25 14:26N 51°17' E 004°23'0 0.0
2014-Aug-25 13:32N 51°17' E 004°23'0 0.0
2014-Aug-25 12:32N 51°17' E 004°23'0 0.0
2014-Aug-25 11:29N 51°17' E 004°23'0 0.0
2014-Aug-25 10:32N 51°17' E 004°23'0 0.0
2014-Aug-25 09:32N 51°17' E 004°23'0 0.0
2014-Aug-25 08:32N 51°17' E 004°23'0 0.0
2014-Aug-25 07:32N 51°17' E 004°23'0 0.0
2014-Aug-25 06:32N 51°17' E 004°23'0 0.0
2014-Aug-25 05:32N 51°17' E 004°23'0 0.0
2014-Aug-25 04:32N 51°17' E 004°23'0 0.0
2014-Aug-25 03:32N 51°17' E 004°23'0 0.0
2014-Aug-25 02:32N 51°17' E 004°23'0 0.0
2014-Aug-25 01:32N 51°17' E 004°23'0 0.0
2014-Aug-25 00:29N 51°17' E 004°23'0 0.0
2014-Aug-24 23:32N 51°17' E 004°23'0 0.0
2014-Aug-24 22:32N 51°17' E 004°23'0 0.0
2014-Aug-24 21:29N 51°17' E 004°23'0 0.0
2014-Aug-24 20:32N 51°17' E 004°23'0 0.0
2014-Aug-24 19:32N 51°17' E 004°23'0 0.0
2014-Aug-24 18:32N 51°17' E 004°23'0 0.0
2014-Aug-24 17:32N 51°17' E 004°23'0 0.0
2014-Aug-24 16:32N 51°17' E 004°23'0 0.0
2014-Aug-24 15:32N 51°17' E 004°23'0 0.0
2014-Aug-24 14:32N 51°17' E 004°23'0 0.0
2014-Aug-24 13:32N 51°17' E 004°23'0 0.0
2014-Aug-24 12:32N 51°17' E 004°23'0 0.0
2014-Aug-24 11:32N 51°17' E 004°23'0 0.0
2014-Aug-24 10:32N 51°17' E 004°23'0 0.0
2014-Aug-24 09:32N 51°17' E 004°23'0 0.0
2014-Aug-24 08:32N 51°17' E 004°23'0 0.0
2014-Aug-24 07:32N 51°17' E 004°23'0 0.0
2014-Aug-24 06:32N 51°17' E 004°23'0 0.0
2014-Aug-24 05:32N 51°17' E 004°23'0 0.0
2014-Aug-24 04:32N 51°17' E 004°23'0 0.0
2014-Aug-24 03:32N 51°17' E 004°23'0 0.0
2014-Aug-24 02:29N 51°17' E 004°23'0 0.0
2014-Aug-24 01:32N 51°17' E 004°23'0 0.0
2014-Aug-24 00:32N 51°17' E 004°23'0 0.0
2014-Aug-23 23:32N 51°17' E 004°23'0 0.0
2014-Aug-23 22:32N 51°17' E 004°23'0 0.0
2014-Aug-23 21:32N 51°17' E 004°23'0 0.0
2014-Aug-23 20:32N 51°17' E 004°23'0 0.0
2014-Aug-23 19:32N 51°17' E 004°23'  

Dump ship's entire track history